Time;durP1;ratioP1;P1;durP2;ratioP2;P2;SDS_P1;SDS_P2;PMS_P1;PMS_P2;Temp;Humidity;BMP_temperature;BMP_pressure;BME280_temperature;BME280_humidity;BME280_pressure;Samples;Min_cycle;Max_cycle;Signal;HPM_P1;HPM_P2
2022/06/27 00:02:24;;;;;;;13.77;6.88;;;;;;;22.74;70.72;100362.56;6210548;23;20004;-74
2022/06/27 00:04:51;;;;;;;11.38;5.72;;;;;;;22.71;70.28;100353.94;6210519;23;20013;-74
2022/06/27 00:07:16;;;;;;;12.52;5.65;;;;;;;22.65;70.61;100357.50;6210438;23;20011;-74
2022/06/27 00:09:42;;;;;;;12.02;6.25;;;;;;;22.56;71.11;100365.09;6210205;23;20044;-73
2022/06/27 00:12:08;;;;;;;17.45;6.35;;;;;;;22.48;71.81;100357.09;6183610;23;20000;-74
2022/06/27 00:14:34;;;;;;;13.80;6.18;;;;;;;22.46;71.97;100359.19;6210318;23;20436;-74
2022/06/27 00:17:00;;;;;;;11.35;5.93;;;;;;;22.48;72.23;100368.03;6210186;23;20008;-73
2022/06/27 00:19:25;;;;;;;15.32;6.57;;;;;;;22.44;72.26;100371.38;6210215;23;20017;-73
2022/06/27 00:21:50;;;;;;;14.77;6.30;;;;;;;22.37;72.21;100365.91;6210366;23;20016;-74
2022/06/27 00:24:16;;;;;;;15.40;6.18;;;;;;;22.38;71.52;100369.47;6209852;23;20004;-73
2022/06/27 00:26:41;;;;;;;15.10;6.22;;;;;;;22.35;71.93;100373.47;6210452;23;20008;-75
2022/06/27 00:29:07;;;;;;;11.85;6.00;;;;;;;22.31;72.21;100377.66;6210216;23;20426;-73
2022/06/27 00:31:33;;;;;;;11.13;6.45;;;;;;;22.21;72.64;100369.03;6210342;23;20456;-67
2022/06/27 00:33:58;;;;;;;11.70;6.68;;;;;;;22.02;73.09;100347.97;6209058;23;20426;-67
2022/06/27 00:36:24;;;;;;;11.07;6.82;;;;;;;22.06;73.56;100371.13;6211674;23;20413;-66
2022/06/27 00:38:49;;;;;;;14.50;6.63;;;;;;;22.00;74.66;100374.69;6212192;23;20017;-67
2022/06/27 00:41:15;;;;;;;10.98;6.03;;;;;;;21.93;75.22;100371.09;6212178;23;20084;-74
2022/06/27 00:43:44;;;;;;;9.38;6.28;;;;;;;21.92;75.77;100366.66;6212545;23;20011;-74
2022/06/27 00:46:10;;;;;;;13.07;6.40;;;;;;;21.86;76.08;100359.31;6212424;23;20008;-74
2022/06/27 00:48:36;;;;;;;13.13;6.53;;;;;;;21.92;75.80;100366.66;6212394;23;20448;-74
2022/06/27 00:51:03;;;;;;;16.00;6.32;;;;;;;21.81;75.62;100359.94;6212480;23;20020;-74
2022/06/27 00:53:29;;;;;;;11.25;6.70;;;;;;;21.84;74.93;100364.13;6212181;23;20478;-74
2022/06/27 00:55:55;;;;;;;14.38;7.10;;;;;;;21.78;75.19;100360.34;6211768;23;20016;-74
2022/06/27 00:58:21;;;;;;;13.13;6.78;;;;;;;21.84;74.93;100365.00;6211543;23;20009;-73
2022/06/27 01:00:47;;;;;;;16.48;7.28;;;;;;;21.82;75.21;100379.88;6211941;23;20079;-74
2022/06/27 01:03:13;;;;;;;11.52;6.35;;;;;;;21.74;75.49;100374.63;6212010;23;20082;-74
2022/06/27 01:05:38;;;;;;;12.85;6.30;;;;;;;21.71;75.98;100383.19;6211957;23;20011;-73
2022/06/27 01:08:04;;;;;;;14.23;6.28;;;;;;;21.54;76.22;100362.75;6184967;23;20054;-74
2022/06/27 01:10:29;;;;;;;10.10;6.32;;;;;;;21.58;76.72;100373.06;6211924;23;20023;-74
2022/06/27 01:12:56;;;;;;;12.80;6.55;;;;;;;21.55;77.13;100369.88;6211922;23;20417;-74
2022/06/27 01:15:23;;;;;;;10.88;6.43;;;;;;;21.54;77.59;100370.94;6211745;23;20012;-74
2022/06/27 01:17:49;;;;;;;15.27;6.53;;;;;;;21.51;77.85;100363.16;6211964;23;20004;-72
2022/06/27 01:20:14;;;;;;;11.35;5.82;;;;;;;21.51;77.94;100365.88;6211803;23;20004;-74
2022/06/27 01:22:40;;;;;;;13.82;5.78;;;;;;;21.48;77.90;100369.84;6211685;23;20016;-75
2022/06/27 01:25:06;;;;;;;9.18;5.80;;;;;;;21.47;77.99;100368.16;6184838;23;20012;-74
2022/06/27 01:27:32;;;;;;;11.27;6.15;;;;;;;21.37;78.12;100351.34;6185140;23;20088;-74
2022/06/27 01:29:58;;;;;;;13.30;6.70;;;;;;;21.36;78.77;100349.66;6210167;23;20082;-74
2022/06/27 01:32:23;;;;;;;10.27;5.82;;;;;;;21.41;78.62;100354.50;6211497;23;20008;-73
2022/06/27 01:34:48;;;;;;;10.00;5.93;;;;;;;21.42;78.66;100367.09;6211863;23;20004;-74
2022/06/27 01:37:14;;;;;;;10.48;6.10;;;;;;;21.34;78.68;100356.34;6211200;23;20409;-73
2022/06/27 01:39:40;;;;;;;12.93;6.82;;;;;;;21.38;78.75;100354.91;6211530;23;20117;-73
2022/06/27 01:42:05;;;;;;;10.82;6.75;;;;;;;21.30;78.79;100344.16;6209578;23;20012;-74
2022/06/27 01:44:33;;;;;;;11.93;6.10;;;;;;;21.34;78.86;100354.47;6211480;23;20318;-74
2022/06/27 01:47:10;;;;;;;11.63;6.38;;;;;;;21.35;79.32;100352.59;6211473;23;20005;-74
2022/06/27 01:49:36;;;;;;;15.40;6.22;;;;;;;21.34;78.53;100351.72;6211592;23;20000;-73
2022/06/27 01:52:04;;;;;;;13.25;6.45;;;;;;;21.29;78.37;100350.66;6211567;23;20059;-73
2022/06/27 01:54:29;;;;;;;13.07;6.82;;;;;;;21.28;78.31;100351.72;6211380;23;20448;-74
2022/06/27 01:56:55;;;;;;;11.73;6.60;;;;;;;21.20;78.35;100344.53;6211163;23;20016;-75
2022/06/27 01:59:23;;;;;;;15.38;6.90;;;;;;;21.26;77.75;100378.34;6211734;23;20058;-73
2022/06/27 02:01:50;;;;;;;9.52;5.88;;;;;;;21.14;79.46;100371.78;6211472;23;20345;-74
2022/06/27 02:04:16;;;;;;;5.65;4.60;;;;;;;21.25;80.38;100373.94;6211166;23;20515;-74
2022/06/27 02:06:44;;;;;;;9.93;5.63;;;;;;;21.24;81.41;100385.88;6211439;23;20007;-74
2022/06/27 02:09:11;;;;;;;8.50;4.95;;;;;;;21.27;81.86;100380.03;6210984;23;20000;-74
2022/06/27 02:11:38;;;;;;;8.77;4.53;;;;;;;21.24;81.46;100358.59;6211390;23;20004;-74
2022/06/27 02:14:04;;;;;;;6.82;4.47;;;;;;;21.29;81.86;100378.81;6211002;23;20139;-72
2022/06/27 02:16:30;;;;;;;9.93;4.63;;;;;;;21.32;82.12;100388.47;6211157;23;20047;-73
2022/06/27 02:18:56;;;;;;;7.05;4.57;;;;;;;21.32;82.16;100383.00;6210940;23;20005;-74
2022/06/27 02:21:26;;;;;;;6.90;4.63;;;;;;;21.33;82.21;100382.81;6210969;23;20013;-74
2022/06/27 02:23:53;;;;;;;6.82;4.18;;;;;;;21.34;82.22;100387.22;6184346;23;20047;-73
2022/06/27 02:26:28;;;;;;;5.78;3.95;;;;;;;21.39;82.00;100394.78;6211063;23;20005;-73
2022/06/27 02:28:56;;;;;;;5.60;4.28;;;;;;;21.43;82.00;100387.88;6211452;23;20346;-74
2022/06/27 02:31:22;;;;;;;5.75;3.72;;;;;;;21.44;81.65;100384.13;6210808;23;20483;-74
2022/06/27 02:33:50;;;;;;;7.72;3.88;;;;;;;21.46;81.49;100392.94;6211518;23;20413;-73
2022/06/27 02:36:18;;;;;;;7.55;4.10;;;;;;;21.26;81.51;100372.91;6211433;23;20497;-74
2022/06/27 02:38:47;;;;;;;9.20;5.32;;;;;;;21.46;81.39;100393.78;6210467;23;20486;-74
2022/06/27 02:41:18;;;;;;;4.88;3.38;;;;;;;21.48;81.03;100390.84;6210715;23;20000;-72
2022/06/27 02:43:47;;;;;;;4.63;3.30;;;;;;;21.42;80.79;100376.13;6210886;23;20008;-74
2022/06/27 02:46:13;;;;;;;10.50;4.10;;;;;;;21.46;81.02;100401.97;6210749;23;20031;-72
2022/06/27 02:48:39;;;;;;;7.38;3.90;;;;;;;21.41;81.14;100403.63;6209550;23;20062;-74
2022/06/27 02:51:09;;;;;;;4.55;3.70;;;;;;;21.44;81.00;100390.41;6210966;23;20023;-73
2022/06/27 02:53:46;;;;;;;4.22;3.50;;;;;;;21.41;81.07;100395.44;6210779;23;20005;-74
2022/06/27 02:56:17;;;;;;;7.00;3.83;;;;;;;21.38;80.88;100387.66;6210398;23;20091;-75
2022/06/27 02:58:54;;;;;;;5.03;3.47;;;;;;;21.40;80.67;100389.13;6210534;23;20055;-74
2022/06/27 03:01:21;;;;;;;6.60;4.18;;;;;;;21.43;80.82;100387.88;6184301;23;20012;-73
2022/06/27 03:03:48;;;;;;;3.97;3.55;;;;;;;21.49;80.42;100390.66;6210972;23;20004;-73
2022/06/27 03:06:14;;;;;;;6.47;3.60;;;;;;;21.37;80.89;100384.06;6210856;23;20007;-74
2022/06/27 03:08:42;;;;;;;7.10;3.42;;;;;;;21.47;80.85;100392.72;6210823;23;20000;-74
2022/06/27 03:11:16;;;;;;;7.93;4.15;;;;;;;21.35;81.03;100380.69;6210622;23;20004;-75
2022/06/27 03:13:43;;;;;;;5.78;4.03;;;;;;;21.45;80.55;100399.44;6211166;23;20011;-73
2022/06/27 03:16:08;;;;;;;6.53;4.10;;;;;;;21.47;80.15;100413.75;6210744;23;20007;-73
2022/06/27 03:18:34;;;;;;;6.13;4.07;;;;;;;21.48;80.08;100410.78;6210874;23;20001;-74
2022/06/27 03:21:00;;;;;;;7.25;3.42;;;;;;;21.52;79.54;100413.97;6210942;23;20338;-74
2022/06/27 03:23:27;;;;;;;6.40;3.65;;;;;;;21.54;79.23;100411.88;6183957;23;20154;-74
2022/06/27 03:25:53;;;;;;;6.95;3.63;;;;;;;21.54;78.84;100404.50;6210897;23;20005;-74
2022/06/27 03:28:18;;;;;;;4.13;3.65;;;;;;;21.48;78.83;100399.03;6210818;23;20047;-73
2022/06/27 03:30:44;;;;;;;6.05;3.55;;;;;;;21.56;78.35;100407.03;6210992;23;20000;-74
2022/06/27 03:33:10;;;;;;;5.78;3.88;;;;;;;21.56;78.19;100398.84;6184043;23;20015;-73
2022/06/27 03:35:35;;;;;;;5.03;3.45;;;;;;;21.63;78.06;100405.19;6210860;23;20005;-75
2022/06/27 03:38:01;;;;;;;6.32;3.75;;;;;;;21.77;77.74;100421.44;6210823;23;20012;-73
2022/06/27 03:40:26;;;;;;;5.20;2.88;;;;;;;21.82;77.15;100415.38;6183826;23;20000;-68
2022/06/27 03:42:52;;;;;;;4.65;3.60;;;;;;;21.89;76.96;100419.81;6211181;23;20005;-68
2022/06/27 03:45:18;;;;;;;8.23;3.88;;;;;;;21.99;76.36;100427.63;6210820;23;20012;-66
2022/06/27 03:47:54;;;;;;;5.53;3.67;;;;;;;22.06;75.83;100418.38;6201261;23;20059;-66
2022/06/27 03:50:21;;;;;;;9.27;3.63;;;;;;;22.08;74.98;100405.38;6184055;23;20003;-66
2022/06/27 03:52:47;;;;;;;5.13;4.00;;;;;;;22.26;74.28;100416.56;6210882;23;20050;-68
2022/06/27 03:55:14;;;;;;;5.07;3.78;;;;;;;22.41;73.91;100427.31;6210456;23;20004;-66
2022/06/27 03:57:47;;;;;;;6.15;4.38;;;;;;;22.55;73.16;100423.56;6210684;23;20013;-67
2022/06/27 04:00:12;;;;;;;8.38;4.15;;;;;;;22.66;72.54;100436.59;6210817;23;20425;-67
2022/06/27 04:02:38;;;;;;;4.60;3.70;;;;;;;22.76;71.66;100433.47;6211000;23;20004;-66
2022/06/27 04:05:04;;;;;;;7.85;4.00;;;;;;;22.77;71.38;100422.31;6210826;23;20412;-68
2022/06/27 04:07:30;;;;;;;8.00;3.95;;;;;;;22.96;71.28;100431.56;6210736;23;20007;-67
2022/06/27 04:09:57;;;;;;;8.32;3.70;;;;;;;23.10;70.39;100446.91;6211598;23;20338;-67
2022/06/27 04:12:22;;;;;;;12.57;4.63;;;;;;;23.22;69.95;100446.06;6212883;23;20076;-66
2022/06/27 04:14:48;;;;;;;5.93;3.92;;;;;;;23.14;69.23;100407.09;6212798;23;20036;-66
2022/06/27 04:17:13;;;;;;;8.98;4.00;;;;;;;23.42;68.75;100443.31;6212783;23;20004;-66
2022/06/27 04:19:39;;;;;;;5.72;3.78;;;;;;;23.41;68.38;100434.25;6210950;23;20008;-66
2022/06/27 04:22:05;;;;;;;6.97;3.63;;;;;;;23.48;67.66;100426.88;6212737;23;20023;-68
2022/06/27 04:24:31;;;;;;;6.00;3.70;;;;;;;23.71;67.68;100445.53;6213517;23;20028;-67
2022/06/27 04:26:57;;;;;;;5.80;3.40;;;;;;;23.75;67.11;100441.28;6212990;23;20008;-68
2022/06/27 04:29:23;;;;;;;5.55;3.38;;;;;;;23.92;66.41;100451.56;6213165;23;20058;-67
2022/06/27 04:31:49;;;;;;;7.60;3.47;;;;;;;24.03;65.91;100459.16;6186366;23;20087;-67
2022/06/27 04:34:15;;;;;;;6.85;3.70;;;;;;;24.10;65.61;100459.09;6186380;23;20008;-74
2022/06/27 04:36:40;;;;;;;5.93;3.90;;;;;;;24.21;65.23;100464.72;6212492;23;20456;-75
2022/06/27 04:39:06;;;;;;;4.00;3.38;;;;;;;24.29;64.78;100459.00;6212268;23;20074;-74
2022/06/27 04:41:32;;;;;;;5.13;3.85;;;;;;;24.42;64.44;100458.06;6212283;23;20095;-74
2022/06/27 04:43:58;;;;;;;5.25;4.00;;;;;;;24.42;64.18;100445.22;6212668;23;20354;-74
2022/06/27 04:46:24;;;;;;;5.80;3.47;;;;;;;24.52;63.56;100446.59;6211990;23;20011;-73
2022/06/27 04:48:50;;;;;;;5.95;4.20;;;;;;;24.73;63.22;100460.81;6212338;23;20004;-73
2022/06/27 04:51:16;;;;;;;8.52;4.32;;;;;;;24.79;62.60;100461.84;6185843;23;20086;-74
2022/06/27 04:53:43;;;;;;;6.78;3.85;;;;;;;24.84;62.43;100453.78;6212463;23;20005;-74
2022/06/27 04:56:09;;;;;;;3.80;3.45;;;;;;;24.89;62.29;100445.72;6211876;23;20039;-74
2022/06/27 04:58:35;;;;;;;5.95;4.00;;;;;;;25.08;61.69;100466.69;6211830;23;20478;-74
2022/06/27 05:01:01;;;;;;;6.53;4.03;;;;;;;25.07;61.05;100454.00;6212471;23;20012;-74
2022/06/27 05:03:26;;;;;;;4.90;3.75;;;;;;;25.21;60.97;100458.31;6211855;23;20091;-75
2022/06/27 05:05:52;;;;;;;5.75;4.00;;;;;;;25.34;60.58;100458.22;6212373;23;20028;-74
2022/06/27 05:08:18;;;;;;;6.57;3.22;;;;;;;25.48;60.50;100476.22;6212177;23;20007;-76
2022/06/27 05:10:44;;;;;;;4.22;3.47;;;;;;;25.53;60.49;100465.38;6211966;23;20028;-75
2022/06/27 05:13:09;;;;;;;4.75;3.10;;;;;;;25.71;60.42;100480.00;6185251;23;20000;-75
2022/06/27 05:15:37;;;;;;;5.88;3.45;;;;;;;25.75;59.41;100461.13;6185284;23;20043;-74
2022/06/27 05:18:03;;;;;;;5.15;3.72;;;;;;;25.93;58.84;100466.63;6184822;23;20040;-75
2022/06/27 05:20:30;;;;;;;6.25;3.70;;;;;;;26.03;58.44;100465.06;6211718;23;20393;-75
2022/06/27 05:22:56;;;;;;;7.75;3.92;;;;;;;26.12;58.18;100465.56;6211809;23;20446;-66
2022/06/27 05:25:22;;;;;;;4.95;3.42;;;;;;;26.18;57.53;100472.91;6212152;23;20001;-66
2022/06/27 05:27:49;;;;;;;4.60;3.88;;;;;;;26.25;57.71;100468.97;6212128;23;20000;-67
2022/06/27 05:30:15;;;;;;;5.03;3.63;;;;;;;26.37;57.86;100472.59;6211778;23;20131;-68
2022/06/27 05:32:41;;;;;;;4.80;3.10;;;;;;;26.48;57.63;100470.97;6211988;23;20012;-67
2022/06/27 05:35:08;;;;;;;4.07;3.13;;;;;;;26.58;57.45;100475.91;6212191;23;20430;-68
2022/06/27 05:37:38;;;;;;;7.43;3.72;;;;;;;26.70;57.19;100477.66;6212317;23;20005;-67
2022/06/27 05:40:08;;;;;;;7.40;3.97;;;;;;;26.59;56.87;100463.84;6213232;23;20004;-68
2022/06/27 05:42:35;;;;;;;5.97;3.47;;;;;;;26.73;56.29;100470.84;6212034;23;20004;-67
2022/06/27 05:45:01;;;;;;;7.10;3.17;;;;;;;26.89;56.38;100478.44;6184755;23;20115;-74
2022/06/27 05:47:28;;;;;;;3.55;3.25;;;;;;;27.01;56.53;100490.31;6211468;23;20004;-75
2022/06/27 05:49:54;;;;;;;5.28;3.33;;;;;;;27.13;55.78;100482.88;6211824;23;20011;-76
2022/06/27 05:52:22;;;;;;;4.10;3.30;;;;;;;27.15;55.84;100481.56;6211237;23;20017;-75
2022/06/27 05:54:48;;;;;;;6.13;3.40;;;;;;;27.33;55.30;100492.50;6211564;23;20028;-75
2022/06/27 05:57:15;;;;;;;6.18;3.15;;;;;;;27.30;55.43;100494.88;6211167;23;20026;-73
2022/06/27 05:59:41;;;;;;;5.97;3.05;;;;;;;27.49;54.64;100493.69;6211395;23;20087;-73
2022/06/27 06:02:07;;;;;;;8.00;3.67;;;;;;;27.62;54.59;100505.31;6211808;23;20018;-67
2022/06/27 06:04:35;;;;;;;6.95;3.42;;;;;;;27.75;54.26;100502.31;6211973;23;20028;-67
2022/06/27 06:07:00;;;;;;;4.88;3.53;;;;;;;27.71;53.27;100479.06;6212121;23;20019;-67
2022/06/27 06:09:26;;;;;;;3.67;2.80;;;;;;;27.86;52.84;100487.69;6211453;23;20004;-68
2022/06/27 06:11:53;;;;;;;5.00;3.22;;;;;;;28.03;52.66;100490.53;6210698;23;20004;-67
2022/06/27 06:14:21;;;;;;;7.13;3.60;;;;;;;28.12;52.45;100492.66;6184093;23;20061;-67
2022/06/27 06:16:48;;;;;;;4.85;3.58;;;;;;;28.18;52.61;100493.63;6211930;23;20023;-68
2022/06/27 06:19:13;;;;;;;6.03;3.00;;;;;;;28.13;51.86;100490.75;6211700;23;20016;-65
2022/06/27 06:21:40;;;;;;;4.72;3.78;;;;;;;28.22;52.20;100497.56;6211975;23;20354;-66
2022/06/27 06:24:06;;;;;;;6.65;3.67;;;;;;;28.14;52.10;100487.75;6211930;23;20004;-67
2022/06/27 06:26:31;;;;;;;4.97;2.97;;;;;;;28.28;52.22;100497.41;6185159;23;20017;-67
2022/06/27 06:28:58;;;;;;;4.28;2.75;;;;;;;28.35;52.07;100491.75;6211552;23;20433;-67
2022/06/27 06:31:24;;;;;;;7.00;3.75;;;;;;;28.45;51.57;100492.84;6211523;23;20008;-67
2022/06/27 06:33:51;;;;;;;3.95;3.40;;;;;;;28.63;51.14;100502.00;6211945;23;20382;-67
2022/06/27 06:36:21;;;;;;;8.60;3.20;;;;;;;28.53;51.00;100502.63;6211495;23;20051;-66
2022/06/27 06:38:47;;;;;;;4.15;3.13;;;;;;;28.66;50.95;100524.41;6211941;23;20008;-66
2022/06/27 06:41:14;;;;;;;5.13;2.95;;;;;;;28.65;50.53;100497.03;6211166;23;20420;-67
2022/06/27 06:43:40;;;;;;;5.00;3.33;;;;;;;28.82;50.99;100507.03;6211515;23;20001;-66
2022/06/27 06:46:06;;;;;;;5.45;3.05;;;;;;;28.96;50.66;100510.31;6211717;23;20388;-67
2022/06/27 06:48:32;;;;;;;4.05;2.97;;;;;;;29.07;50.31;100513.03;6211503;23;20004;-67
2022/06/27 06:50:58;;;;;;;7.18;3.33;;;;;;;29.18;49.98;100505.78;6211592;23;20008;-66
2022/06/27 06:53:24;;;;;;;4.47;3.20;;;;;;;29.32;49.91;100512.63;6211147;23;20449;-68
2022/06/27 06:55:50;;;;;;;3.38;3.08;;;;;;;29.31;49.41;100503.50;6184419;23;20022;-67
2022/06/27 06:58:16;;;;;;;6.55;3.05;;;;;;;29.44;49.69;100507.84;6211261;23;20012;-67
2022/06/27 07:00:43;;;;;;;4.40;3.40;;;;;;;29.56;49.69;100514.94;6212712;23;20001;-68
2022/06/27 07:03:10;;;;;;;7.50;3.13;;;;;;;29.64;49.12;100519.25;6185291;23;20009;-67
2022/06/27 07:05:37;;;;;;;5.35;2.75;;;;;;;29.72;48.71;100521.56;6185626;23;20020;-68
2022/06/27 07:08:04;;;;;;;5.05;2.78;;;;;;;29.72;48.97;100516.03;6185301;23;20084;-67
2022/06/27 07:10:30;;;;;;;3.17;2.88;;;;;;;29.76;48.70;100515.28;6211389;23;20001;-67
2022/06/27 07:12:56;;;;;;;5.15;2.63;;;;;;;29.88;48.37;100509.63;6211403;23;20027;-65
2022/06/27 07:15:22;;;;;;;4.68;2.58;;;;;;;30.07;47.98;100506.31;6211262;23;20004;-66
2022/06/27 07:17:52;;;;;;;7.60;3.05;;;;;;;30.14;47.61;100509.72;6211178;23;20004;-66
2022/06/27 07:20:19;;;;;;;9.75;3.25;;;;;;;30.27;47.06;100514.91;6210974;23;20000;-68
2022/06/27 07:22:46;;;;;;;6.03;3.15;;;;;;;30.36;46.88;100518.88;6211161;23;20016;-66
2022/06/27 07:25:12;;;;;;;7.22;3.20;;;;;;;30.44;46.61;100501.00;6211017;23;20115;-66
2022/06/27 07:27:39;;;;;;;5.50;2.90;;;;;;;30.60;46.40;100505.59;6211332;23;20386;-67
2022/06/27 07:30:09;;;;;;;3.67;2.60;;;;;;;30.65;46.37;100511.19;6211144;23;20014;-66
2022/06/27 07:32:35;;;;;;;4.10;2.90;;;;;;;30.67;46.24;100503.44;6184764;23;20043;-67
2022/06/27 07:35:02;;;;;;;7.72;3.22;;;;;;;30.61;46.04;100487.88;6211489;23;20019;-67
2022/06/27 07:37:27;;;;;;;7.93;2.70;;;;;;;30.84;45.98;100504.22;6211046;23;20460;-67
2022/06/27 07:39:54;;;;;;;4.75;2.60;;;;;;;30.91;45.66;100504.00;6211280;23;20008;-66
2022/06/27 07:42:20;;;;;;;5.18;3.08;;;;;;;30.94;45.38;100504.31;6210860;23;20004;-66
2022/06/27 07:44:46;;;;;;;5.28;2.47;;;;;;;30.98;45.64;100499.06;6210997;23;20031;-67
2022/06/27 07:47:11;;;;;;;9.27;3.75;;;;;;;31.09;45.73;100515.53;6211821;23;20009;-67
2022/06/27 07:49:38;;;;;;;5.25;3.40;;;;;;;31.14;45.25;100495.34;6211631;23;20000;-67
2022/06/27 07:52:04;;;;;;;9.35;3.17;;;;;;;31.19;44.95;100509.22;6211335;23;20019;-67
2022/06/27 07:54:29;;;;;;;6.85;3.20;;;;;;;31.20;44.69;100489.56;6210947;23;20032;-67
2022/06/27 07:56:55;;;;;;;3.75;2.50;;;;;;;31.48;44.24;100507.81;6210874;23;20022;-66
2022/06/27 07:59:21;;;;;;;9.38;2.88;;;;;;;31.48;44.56;100485.63;6210420;23;20024;-67
2022/06/27 08:01:47;;;;;;;7.10;2.97;;;;;;;31.68;44.58;100505.19;6210930;23;20008;-66
2022/06/27 08:04:14;;;;;;;6.38;3.17;;;;;;;31.83;44.56;100511.72;6210824;23;20016;-67
2022/06/27 08:06:41;;;;;;;8.38;3.05;;;;;;;31.75;43.19;100501.06;6210744;23;20013;-67
2022/06/27 08:09:08;;;;;;;8.27;2.58;;;;;;;31.82;42.65;100501.69;6210657;23;20005;-66
2022/06/27 08:11:41;;;;;;;3.50;2.70;;;;;;;31.97;42.58;100510.13;6210517;23;20501;-67
2022/06/27 08:14:17;;;;;;;6.43;2.35;;;;;;;31.92;42.48;100503.72;6210778;23;20038;-67
2022/06/27 08:16:45;;;;;;;6.65;2.95;;;;;;;32.00;42.56;100506.78;6210367;23;20024;-66
2022/06/27 08:19:11;;;;;;;4.40;2.75;;;;;;;32.06;42.59;100515.97;6210280;23;20100;-66
2022/06/27 08:21:37;;;;;;;3.90;2.75;;;;;;;32.17;42.30;100518.53;6210448;23;20008;-67
2022/06/27 08:24:07;;;;;;;5.13;2.78;;;;;;;32.29;42.01;100513.59;6210661;23;20012;-67
2022/06/27 08:26:35;;;;;;;7.82;3.03;;;;;;;32.37;42.04;100510.31;6210535;23;20091;-67
2022/06/27 08:29:04;;;;;;;7.32;3.05;;;;;;;32.41;41.65;100516.97;6210467;23;20015;-68
2022/06/27 08:31:32;;;;;;;4.63;3.20;;;;;;;32.41;42.04;100505.88;6210304;23;20008;-67
2022/06/27 08:34:00;;;;;;;6.20;2.67;;;;;;;32.50;42.06;100515.34;6210447;23;20063;-66
2022/06/27 08:36:27;;;;;;;3.88;2.65;;;;;;;32.51;41.38;100507.88;6210368;23;20396;-67
2022/06/27 08:38:53;;;;;;;7.13;3.00;;;;;;;32.63;40.71;100508.47;6210513;23;20088;-67
2022/06/27 08:41:21;;;;;;;5.32;2.40;;;;;;;32.72;40.73;100514.31;6210301;23;20019;-67
2022/06/27 08:43:49;;;;;;;6.32;2.17;;;;;;;32.80;40.77;100513.75;6183836;23;20020;-67
2022/06/27 08:46:16;;;;;;;5.07;2.78;;;;;;;32.83;40.95;100502.09;6209992;23;20001;-67
2022/06/27 08:48:45;;;;;;;5.25;2.63;;;;;;;32.90;41.10;100509.09;6210341;23;20024;-67
2022/06/27 08:51:12;;;;;;;4.53;2.22;;;;;;;32.97;40.87;100512.41;6183487;23;20074;-67
2022/06/27 08:53:38;;;;;;;17.80;3.95;;;;;;;33.10;40.39;100516.59;6210428;23;20039;-68
2022/06/27 08:56:05;;;;;;;4.60;2.63;;;;;;;33.14;40.69;100512.16;6210526;23;20016;-67
2022/06/27 08:58:30;;;;;;;5.40;2.70;;;;;;;33.21;40.39;100513.56;6185235;23;20015;-67
2022/06/27 09:00:57;;;;;;;4.18;2.45;;;;;;;33.28;40.24;100508.56;6212094;23;20008;-68
2022/06/27 09:03:23;;;;;;;3.05;2.30;;;;;;;33.36;38.91;100509.97;6212209;23;20012;-68
2022/06/27 09:06:01;;;;;;;7.40;2.58;;;;;;;33.45;38.26;100506.34;6211945;23;20005;-67
2022/06/27 09:08:28;;;;;;;7.45;2.65;;;;;;;33.51;37.73;100504.38;6212104;23;20396;-68
2022/06/27 09:10:56;;;;;;;4.97;2.85;;;;;;;33.54;37.41;100495.47;6212152;23;20087;-68
2022/06/27 09:13:23;;;;;;;7.20;2.30;;;;;;;33.65;36.85;100509.09;6212022;23;19997;-67
2022/06/27 09:15:56;;;;;;;7.32;2.53;;;;;;;33.61;36.47;100504.34;6212749;23;20011;-67
2022/06/27 09:18:25;;;;;;;4.17;2.73;;;;;;;33.68;36.06;100494.63;6211886;23;20005;-66
2022/06/27 09:21:01;;;;;;;1.90;1.60;;;;;;;33.77;35.06;100508.78;6185377;23;20036;-67
2022/06/27 09:23:43;;;;;;;5.18;2.15;;;;;;;33.84;34.61;100501.81;6212330;23;20016;-68
2022/06/27 09:26:13;;;;;;;3.00;2.50;;;;;;;33.86;34.56;100499.63;6212210;23;20031;-67
2022/06/27 09:28:42;;;;;;;4.63;2.58;;;;;;;33.93;36.01;100505.72;6212068;23;20084;-66
2022/06/27 09:31:31;;;;;;;6.80;2.28;;;;;;;33.97;36.07;100495.69;6212088;23;20400;-68
2022/06/27 09:34:10;;;;;;;4.03;2.40;;;;;;;34.02;36.29;100500.41;6211919;23;20008;-69
2022/06/27 09:36:55;;;;;;;7.90;3.17;;;;;;;33.98;35.78;100474.25;6185215;23;20035;-65
2022/06/27 09:39:28;;;;;;;4.82;2.35;;;;;;;34.09;35.72;100504.56;6211785;23;20020;-67
2022/06/27 09:41:59;;;;;;;4.50;2.58;;;;;;;34.19;35.01;100495.31;6212062;23;20028;-67
2022/06/27 09:44:29;;;;;;;4.32;2.50;;;;;;;34.23;35.44;100500.03;6211631;23;20385;-68
2022/06/27 09:47:16;;;;;;;3.97;2.13;;;;;;;34.20;35.35;100500.59;6211630;23;20005;-66
2022/06/27 09:49:44;;;;;;;4.80;2.20;;;;;;;34.18;35.36;100496.44;6211865;23;21154;-66
2022/06/27 09:52:12;;;;;;;6.32;2.78;;;;;;;34.19;35.78;100496.16;6211484;23;20020;-65
2022/06/27 09:54:40;;;;;;;5.55;2.55;;;;;;;34.15;35.12;100491.44;6211892;23;20062;-66
2022/06/27 09:57:07;;;;;;;4.15;2.10;;;;;;;34.14;35.25;100487.00;6179737;23;20354;-67
2022/06/27 09:59:34;;;;;;;5.63;2.35;;;;;;;34.18;35.22;100494.47;6204456;23;20020;-66
2022/06/27 10:02:00;;;;;;;6.72;2.20;;;;;;;34.10;35.03;100483.94;6181690;23;20033;-67
2022/06/27 10:04:28;;;;;;;4.78;2.20;;;;;;;34.10;34.65;100483.09;6181402;23;20012;-67
2022/06/27 10:06:55;;;;;;;7.90;2.35;;;;;;;33.99;34.77;100476.75;6181875;23;20350;-65
2022/06/27 10:09:24;;;;;;;3.83;2.58;;;;;;;34.05;35.21;100481.16;6181249;23;20005;-67
2022/06/27 10:12:22;;;;;;;4.80;2.30;;;;;;;34.11;35.08;100479.19;6181386;23;20012;-66
2022/06/27 10:15:10;;;;;;;8.07;2.50;;;;;;;34.20;35.01;100474.69;6181625;23;20401;-67
2022/06/27 10:17:41;;;;;;;5.13;2.63;;;;;;;34.28;34.64;100474.94;6181383;23;20091;-67
2022/06/27 10:20:27;;;;;;;3.33;2.20;;;;;;;34.32;34.77;100475.19;6181595;23;20005;-68
2022/06/27 10:23:04;;;;;;;4.75;2.28;;;;;;;34.29;34.10;100470.19;6181611;23;20009;-67
2022/06/27 10:25:29;;;;;;;5.05;2.45;;;;;;;34.28;34.34;100471.31;6181454;23;20019;-68
2022/06/27 10:28:12;;;;;;;3.95;2.20;;;;;;;34.25;34.19;100469.94;6181619;23;20044;-67
2022/06/27 10:30:54;;;;;;;4.45;2.30;;;;;;;34.22;34.50;100466.88;6181479;23;20103;-68
2022/06/27 10:33:22;;;;;;;4.38;2.33;;;;;;;34.21;34.37;100473.59;6179433;23;20009;-66
2022/06/27 10:35:54;;;;;;;3.83;2.10;;;;;;;34.11;34.48;100460.53;6181276;23;20071;-67
2022/06/27 10:38:24;;;;;;;8.07;2.47;;;;;;;34.09;34.62;100459.16;6180940;23;20087;-67
2022/06/27 10:40:51;;;;;;;5.13;2.40;;;;;;;34.11;34.70;100457.72;6181317;23;20010;-68
2022/06/27 10:43:35;;;;;;;4.43;2.38;;;;;;;34.11;34.81;100443.00;6179269;23;20100;-68
2022/06/27 10:46:00;;;;;;;;;;;;;;;34.02;34.58;100445.56;6181908;23;20013;-68
2022/06/27 10:48:37;;;;;;;4.05;2.13;;;;;;;34.00;34.93;100445.00;6181193;23;20233;-67
2022/06/27 10:51:21;;;;;;;8.73;2.78;;;;;;;33.85;34.87;100439.44;6181334;23;20429;-67
2022/06/27 10:54:05;;;;;;;3.38;2.40;;;;;;;33.88;35.18;100447.25;6181528;23;20005;-65
2022/06/27 10:56:35;;;;;;;3.30;2.17;;;;;;;33.81;34.92;100438.34;6199123;23;20048;-67
2022/06/27 10:59:03;;;;;;;11.80;2.42;;;;;;;33.75;35.35;100436.69;6211546;23;20066;-67
2022/06/27 11:01:30;;;;;;;6.50;2.33;;;;;;;33.69;35.19;100429.47;6183916;23;20393;-67
2022/06/27 11:03:57;;;;;;;6.80;2.47;;;;;;;33.76;35.22;100443.09;6211075;23;20078;-67
2022/06/27 11:06:23;;;;;;;4.53;2.30;;;;;;;33.69;35.03;100435.03;6210886;23;20000;-67
2022/06/27 11:08:51;;;;;;;4.72;2.10;;;;;;;33.55;35.06;100427.56;6211048;23;20409;-67
2022/06/27 11:11:18;;;;;;;6.88;2.47;;;;;;;33.67;35.01;100430.88;6210725;23;20036;-66
2022/06/27 11:13:46;;;;;;;4.22;2.38;;;;;;;33.76;34.63;100431.97;6210899;23;21064;-67
2022/06/27 11:16:16;;;;;;;2.33;2.13;;;;;;;33.91;33.81;100426.34;6211147;23;20071;-67
2022/06/27 11:18:45;;;;;;;5.47;2.70;;;;;;;34.01;33.94;100423.56;6210751;23;20102;-67
2022/06/27 11:21:13;;;;;;;4.53;2.88;;;;;;;34.14;33.33;100414.59;6211133;23;20008;-67
2022/06/27 11:23:54;;;;;;;3.03;2.08;;;;;;;34.05;33.45;100405.16;6211051;23;20012;-67
2022/06/27 11:26:21;;;;;;;4.20;2.28;;;;;;;34.16;33.43;100415.09;6210751;23;20008;-67
2022/06/27 11:34:15;;;;;;;2.72;2.30;;;;;;;34.36;33.46;100412.22;6210790;23;19974;-76